Time;durP1;ratioP1;P1;durP2;ratioP2;P2;SDS_P1;SDS_P2;PMS_P1;PMS_P2;Temp;Humidity;BMP_temperature;BMP_pressure;BME280_temperature;BME280_humidity;BME280_pressure;Samples;Min_cycle;Max_cycle;Signal;HPM_P1;HPM_P2
2023/06/18 00:00:16;;;;;;;9.00;6.40;;;;;;;14.69;100.00;100537.81;677518;29;1054;-55
2023/06/18 00:00:36;;;;;;;7.77;6.33;;;;;;;14.73;100.00;100539.47;677307;29;913;-55
2023/06/18 00:00:57;;;;;;;8.03;6.60;;;;;;;14.70;100.00;100540.41;675745;29;4396;-55
2023/06/18 00:01:17;;;;;;;8.50;6.73;;;;;;;14.70;100.00;100544.81;676622;29;925;-53
2023/06/18 00:01:38;;;;;;;8.70;6.97;;;;;;;14.71;100.00;100538.66;677109;29;948;-54
2023/06/18 00:01:59;;;;;;;8.13;6.32;;;;;;;14.73;100.00;100535.09;675762;29;1519;-53
2023/06/18 00:02:19;;;;;;;8.77;6.70;;;;;;;14.73;100.00;100535.09;677625;29;1215;-51
2023/06/18 00:02:40;;;;;;;7.97;6.67;;;;;;;14.73;100.00;100535.09;677438;29;848;-51
2023/06/18 00:03:00;;;;;;;8.07;6.72;;;;;;;14.73;100.00;100536.84;676365;29;1115;-54
2023/06/18 00:03:20;;;;;;;8.00;6.53;;;;;;;14.73;100.00;100534.19;677508;29;837;-54
2023/06/18 00:03:41;;;;;;;8.80;6.55;;;;;;;14.74;100.00;100536.78;676432;29;4434;-53
2023/06/18 00:04:01;;;;;;;9.27;6.60;;;;;;;14.74;100.00;100530.69;675759;29;1499;-50
2023/06/18 00:04:22;;;;;;;7.85;6.55;;;;;;;14.69;100.00;100533.44;677531;29;984;-54
2023/06/18 00:04:42;;;;;;;8.30;6.73;;;;;;;14.71;100.00;100533.38;677274;29;953;-54
2023/06/18 00:05:02;;;;;;;8.60;6.37;;;;;;;14.74;100.00;100543.84;674917;29;1538;-50
2023/06/18 00:05:23;;;;;;;8.82;6.75;;;;;;;14.71;100.00;100533.38;677430;29;1231;-55
2023/06/18 00:05:43;;;;;;;8.70;6.70;;;;;;;14.68;100.00;100530.84;677565;29;905;-49
2023/06/18 00:06:04;;;;;;;9.40;6.60;;;;;;;14.68;100.00;100536.09;675548;29;2173;-50
2023/06/18 00:06:24;;;;;;;7.80;6.40;;;;;;;14.66;100.00;100533.47;677431;29;972;-53
2023/06/18 00:06:45;;;;;;;8.93;6.57;;;;;;;14.62;100.00;100537.97;676773;29;4913;-54
2023/06/18 00:07:05;;;;;;;8.43;6.60;;;;;;;14.62;100.00;100532.69;675668;29;1527;-54
2023/06/18 00:07:26;;;;;;;8.68;6.80;;;;;;;14.60;100.00;100531.81;677042;29;1267;-52
2023/06/18 00:07:46;;;;;;;8.50;6.40;;;;;;;14.59;100.00;100535.38;677242;29;990;-54
2023/06/18 00:08:06;;;;;;;8.52;6.30;;;;;;;14.58;100.00;100540.66;671982;29;1506;-54
2023/06/18 00:08:27;;;;;;;8.10;6.40;;;;;;;14.60;100.00;100533.59;674870;29;913;-54
2023/06/18 00:08:47;;;;;;;8.77;6.63;;;;;;;14.59;100.00;100535.38;672800;29;1591;-53
2023/06/18 00:09:08;;;;;;;8.37;6.60;;;;;;;14.59;100.00;100538.00;673809;29;1069;-51
2023/06/18 00:09:28;;;;;;;9.10;6.60;;;;;;;14.60;100.00;100538.88;674937;29;878;-53
2023/06/18 00:09:48;;;;;;;8.05;6.47;;;;;;;14.60;100.00;100539.72;673837;29;4389;-52
2023/06/18 00:10:09;;;;;;;9.33;6.70;;;;;;;14.61;100.00;100543.22;676763;29;834;-56
2023/06/18 00:10:29;;;;;;;9.13;6.57;;;;;;;14.58;100.00;100535.38;677348;29;897;-58
2023/06/18 00:10:50;;;;;;;9.37;6.53;;;;;;;14.58;100.00;100540.66;675721;29;1649;-51
2023/06/18 00:11:10;;;;;;;9.63;6.80;;;;;;;14.58;100.00;100545.91;677190;29;952;-55
2023/06/18 00:11:30;;;;;;;8.20;6.73;;;;;;;14.51;100.00;100533.81;677356;29;937;-55
2023/06/18 00:11:51;;;;;;;8.13;6.73;;;;;;;14.47;100.00;100543.56;676059;29;1491;-54
2023/06/18 00:12:11;;;;;;;8.70;6.70;;;;;;;14.48;100.00;100540.00;676583;29;779;-54
2023/06/18 00:12:32;;;;;;;8.07;6.50;;;;;;;14.50;100.00;100543.47;677260;29;994;-52
2023/06/18 00:12:52;;;;;;;8.00;6.60;;;;;;;14.49;100.00;100541.75;675344;29;4305;-52
2023/06/18 00:13:13;;;;;;;7.93;6.70;;;;;;;14.46;100.00;100539.19;677035;29;908;-53
2023/06/18 00:13:33;;;;;;;7.38;6.45;;;;;;;14.47;100.00;100544.41;677609;29;956;-55
2023/06/18 00:13:53;;;;;;;8.63;6.77;;;;;;;14.49;100.00;100536.47;675969;29;1479;-54
2023/06/18 00:14:14;;;;;;;8.77;6.82;;;;;;;14.46;100.00;100536.56;677041;29;1326;-54
2023/06/18 00:14:34;;;;;;;8.60;6.70;;;;;;;14.43;100.00;100541.91;677130;29;869;-52
2023/06/18 00:14:55;;;;;;;8.47;6.90;;;;;;;14.43;100.00;100536.63;675856;29;1428;-52
2023/06/18 00:15:15;;;;;;;8.90;7.03;;;;;;;14.46;100.00;100539.19;677207;29;849;-52
2023/06/18 00:15:36;;;;;;;8.75;6.85;;;;;;;14.42;100.00;100540.16;677263;29;913;-52
2023/06/18 00:15:56;;;;;;;9.27;6.70;;;;;;;14.42;100.00;100537.53;671727;29;4914;-53
2023/06/18 00:16:16;;;;;;;8.95;6.40;;;;;;;14.39;100.00;100534.97;673280;29;3419;-54
2023/06/18 00:16:37;;;;;;;7.80;6.27;;;;;;;14.39;100.00;100543.72;674432;29;858;-53
2023/06/18 00:16:57;;;;;;;7.53;5.90;;;;;;;14.34;100.00;100539.47;673255;29;1630;-51
2023/06/18 00:17:18;;;;;;;9.25;6.55;;;;;;;14.28;100.00;100537.84;674895;29;1109;-54
2023/06/18 00:17:38;;;;;;;10.03;6.90;;;;;;;14.25;100.00;100530.88;677077;29;1001;-54
2023/06/18 00:17:58;;;;;;;9.10;6.70;;;;;;;14.24;100.00;100537.03;676071;29;1922;-49
2023/06/18 00:18:19;;;;;;;8.77;6.63;;;;;;;14.22;100.00;100536.22;677387;29;886;-52
2023/06/18 00:18:39;;;;;;;8.60;6.57;;;;;;;14.21;100.00;100537.09;677067;29;805;-52
2023/06/18 00:18:59;;;;;;;7.85;6.43;;;;;;;14.17;100.00;100529.31;675546;29;4583;-53
2023/06/18 00:19:20;;;;;;;8.30;6.40;;;;;;;14.14;100.00;100536.38;677543;29;907;-53
2023/06/18 00:19:40;;;;;;;8.07;6.40;;;;;;;14.14;100.00;100538.13;677298;29;806;-55
2023/06/18 00:20:01;;;;;;;8.33;6.40;;;;;;;14.13;100.00;100537.25;674596;29;1457;-54
2023/06/18 00:20:22;;;;;;;8.35;6.40;;;;;;;14.14;100.00;100535.50;677319;29;1158;-53
2023/06/18 00:20:42;;;;;;;9.38;6.72;;;;;;;14.15;100.00;100537.25;676618;29;961;-53
2023/06/18 00:21:07;;;;;;;8.37;6.53;;;;;;;14.15;100.00;100537.25;675967;29;1388;-50
2023/06/18 00:21:27;;;;;;;8.25;6.47;;;;;;;14.14;100.00;100527.63;673067;29;1768;-53
2023/06/18 00:21:48;;;;;;;8.10;6.60;;;;;;;14.18;100.00;100536.28;672504;29;4681;-53
2023/06/18 00:22:09;;;;;;;8.27;6.20;;;;;;;14.17;100.00;100538.06;674824;29;1007;-52
2023/06/18 00:22:29;;;;;;;8.45;6.32;;;;;;;14.15;100.00;100537.25;675109;29;968;-54
2023/06/18 00:22:52;;;;;;;7.65;6.10;;;;;;;14.13;100.00;100536.41;674476;29;1456;-53
2023/06/18 00:23:13;;;;;;;7.75;6.30;;;;;;;14.13;100.00;100536.41;674876;29;822;-54
2023/06/18 00:23:34;;;;;;;9.00;6.80;;;;;;;14.12;100.00;100537.28;675385;29;771;-54
2023/06/18 00:23:55;;;;;;;8.15;6.13;;;;;;;14.11;100.00;100538.22;675232;29;1682;-54
2023/06/18 00:24:15;;;;;;;8.60;6.50;;;;;;;14.15;100.00;100534.63;674857;29;878;-55
2023/06/18 00:24:36;;;;;;;9.10;6.72;;;;;;;14.16;100.00;100535.47;674676;29;901;-51
2023/06/18 00:24:56;;;;;;;8.27;6.53;;;;;;;14.16;100.00;100533.69;674491;29;4305;-54
2023/06/18 00:25:17;;;;;;;8.97;6.77;;;;;;;14.17;100.00;100534.59;677339;29;762;-55
2023/06/18 00:25:37;;;;;;;9.35;6.63;;;;;;;14.18;100.00;100534.53;677509;29;790;-50
2023/06/18 00:26:00;;;;;;;8.60;6.40;;;;;;;14.19;100.00;100535.41;675277;29;1519;-53
2023/06/18 00:26:22;;;;;;;7.50;5.95;;;;;;;14.21;100.00;100533.63;677701;29;1217;-52
2023/06/18 00:26:43;;;;;;;7.95;6.53;;;;;;;14.22;100.00;100536.22;677300;29;940;-53
2023/06/18 00:27:03;;;;;;;8.47;6.63;;;;;;;14.24;100.00;100534.41;672771;29;1567;-55
2023/06/18 00:27:23;;;;;;;7.85;6.22;;;;;;;14.25;100.00;100537.91;672054;29;1207;-53
2023/06/18 00:27:44;;;;;;;8.10;6.40;;;;;;;14.29;100.00;100534.31;669093;29;4668;-53
2023/06/18 00:28:05;;;;;;;8.32;6.28;;;;;;;14.27;100.00;100534.34;667764;29;1462;-55
2023/06/18 00:28:26;;;;;;;7.72;6.47;;;;;;;14.28;100.00;100537.84;667216;29;941;-54
2023/06/18 00:28:46;;;;;;;8.27;6.83;;;;;;;14.28;100.00;100537.84;667184;29;1078;-53
2023/06/18 00:29:08;;;;;;;8.98;6.75;;;;;;;14.30;100.00;100538.66;664418;29;1404;-54
2023/06/18 00:29:29;;;;;;;7.28;6.20;;;;;;;14.30;100.00;100542.16;669879;29;1262;-55
2023/06/18 00:29:49;;;;;;;8.48;6.20;;;;;;;14.26;100.00;100537.88;670654;29;968;-51
2023/06/18 00:30:10;;;;;;;9.97;6.87;;;;;;;14.20;100.00;100534.50;671550;29;921;-54
2023/06/18 00:30:32;;;;;;;8.75;6.65;;;;;;;14.19;100.00;100533.66;675289;29;1244;-54
2023/06/18 00:30:52;;;;;;;8.10;6.45;;;;;;;14.19;100.00;100538.91;672578;29;4314;-55
2023/06/18 00:31:13;;;;;;;8.40;6.20;;;;;;;14.18;100.00;100536.28;673746;29;866;-54
2023/06/18 00:31:34;;;;;;;8.50;6.10;;;;;;;14.17;100.00;100539.84;675559;29;1257;-53
2023/06/18 00:31:55;;;;;;;9.85;6.70;;;;;;;14.14;100.00;100536.38;672664;29;1388;-54
2023/06/18 00:32:15;;;;;;;8.43;6.43;;;;;;;14.13;100.00;100533.78;674945;29;798;-55
2023/06/18 00:32:36;;;;;;;7.87;6.13;;;;;;;14.12;100.00;100538.19;677338;29;878;-54
2023/06/18 00:32:58;;;;;;;8.00;6.30;;;;;;;14.13;100.00;100537.25;675893;29;1439;-56
2023/06/18 00:33:19;;;;;;;8.82;6.32;;;;;;;14.10;100.00;100534.69;676514;29;842;-52
2023/06/18 00:33:39;;;;;;;9.05;6.30;;;;;;;14.07;100.00;100534.78;673654;29;926;-53
2023/06/18 00:34:06;;;;;;;9.27;6.30;;;;;;;14.09;100.00;100537.38;671683;29;4450;-54
2023/06/18 00:34:32;;;;;;;8.30;6.32;;;;;;;14.13;100.00;100531.16;671136;29;872;-55
2023/06/18 00:34:53;;;;;;;8.27;6.47;;;;;;;14.13;100.00;100528.50;670864;29;1593;-54
2023/06/18 00:35:14;;;;;;;7.47;6.28;;;;;;;14.13;100.00;100531.16;671751;29;1019;-55
2023/06/18 00:35:35;;;;;;;8.75;6.55;;;;;;;14.14;100.00;100530.25;675602;29;960;-54
2023/06/18 00:35:59;;;;;;;8.07;6.10;;;;;;;14.17;100.00;100529.31;675121;29;1558;-51
2023/06/18 00:36:20;;;;;;;8.52;6.25;;;;;;;14.18;100.00;100534.53;675602;29;842;-53
2023/06/18 00:36:43;;;;;;;8.13;6.30;;;;;;;14.18;100.00;100533.66;676599;29;4458;-52
2023/06/18 00:37:09;;;;;;;8.25;6.22;;;;;;;14.21;100.00;100531.84;675350;29;1432;-55
2023/06/18 00:37:29;;;;;;;8.82;6.13;;;;;;;14.22;100.00;100533.59;675045;29;1000;-53
2023/06/18 00:37:50;;;;;;;7.88;6.30;;;;;;;14.23;100.00;100532.69;673379;29;1935;-53
2023/06/18 00:38:10;;;;;;;7.88;6.18;;;;;;;14.23;100.00;100524.81;674599;29;1161;-52
2023/06/18 00:38:32;;;;;;;8.40;6.40;;;;;;;14.23;100.00;100526.53;674166;29;878;-52
2023/06/18 00:38:53;;;;;;;8.63;6.50;;;;;;;14.17;100.00;100527.56;673683;29;5601;-54
2023/06/18 00:39:13;;;;;;;8.43;6.55;;;;;;;14.17;100.00;100529.31;674647;29;1232;-54
2023/06/18 00:39:33;;;;;;;8.43;6.27;;;;;;;14.18;100.00;100529.28;671331;29;1650;-54
2023/06/18 00:39:55;;;;;;;8.30;6.43;;;;;;;14.19;100.00;100528.41;670319;29;4844;-54
2023/06/18 00:40:16;;;;;;;8.63;6.30;;;;;;;14.20;100.00;100527.47;672303;29;901;-52
2023/06/18 00:40:36;;;;;;;9.38;6.40;;;;;;;14.21;100.00;100523.09;671481;29;830;-54
2023/06/18 00:40:56;;;;;;;9.73;6.43;;;;;;;14.24;100.00;100525.66;671209;29;1239;-55
2023/06/18 00:41:17;;;;;;;8.70;6.27;;;;;;;14.24;100.00;100521.25;674895;29;931;-55
2023/06/18 00:41:37;;;;;;;8.53;6.20;;;;;;;14.23;100.00;100519.53;676452;29;1075;-55
2023/06/18 00:41:58;;;;;;;8.70;6.72;;;;;;;14.22;100.00;100520.44;676247;29;912;-54
2023/06/18 00:42:20;;;;;;;8.10;6.53;;;;;;;14.23;100.00;100522.16;677113;29;838;-52
2023/06/18 00:42:41;;;;;;;8.00;6.55;;;;;;;14.23;100.00;100516.91;676512;29;4533;-54
2023/06/18 00:43:03;;;;;;;9.73;6.93;;;;;;;14.22;100.00;100516.91;676182;29;1039;-55
2023/06/18 00:43:27;;;;;;;9.60;6.63;;;;;;;14.20;100.00;100513.47;677397;29;980;-55
2023/06/18 00:43:47;;;;;;;8.38;6.30;;;;;;;14.20;100.00;100513.47;676846;29;912;-52
2023/06/18 00:44:08;;;;;;;9.35;6.65;;;;;;;14.20;100.00;100518.72;675003;29;1083;-54
2023/06/18 00:44:28;;;;;;;9.23;7.00;;;;;;;14.21;100.00;100515.22;677666;29;965;-55
2023/06/18 00:44:49;;;;;;;7.93;6.47;;;;;;;14.20;100.00;100516.09;675440;29;1154;-52
2023/06/18 00:45:11;;;;;;;8.43;6.70;;;;;;;14.21;100.00;100518.69;677304;29;1068;-51
2023/06/18 00:45:32;;;;;;;8.40;6.57;;;;;;;14.22;100.00;100516.91;677153;29;968;-53
2023/06/18 00:45:53;;;;;;;9.60;7.37;;;;;;;14.20;100.00;100514.31;675190;29;4606;-55
2023/06/18 00:46:14;;;;;;;9.27;6.85;;;;;;;14.20;100.00;100514.31;674295;29;886;-52
2023/06/18 00:46:36;;;;;;;9.03;6.70;;;;;;;14.20;100.00;100508.22;672425;29;885;-55
2023/06/18 00:46:59;;;;;;;9.02;6.80;;;;;;;14.21;100.00;100518.69;673083;29;913;-54
2023/06/18 00:47:21;;;;;;;7.88;6.43;;;;;;;14.22;100.00;100514.28;674919;29;1167;-55
2023/06/18 00:47:44;;;;;;;8.80;6.97;;;;;;;14.24;100.00;100515.13;671934;29;1970;-55
2023/06/18 00:48:05;;;;;;;8.20;6.75;;;;;;;14.25;100.00;100517.72;671560;29;957;-54
2023/06/18 00:48:26;;;;;;;8.70;6.90;;;;;;;14.28;100.00;100515.03;673251;29;862;-54
2023/06/18 00:48:47;;;;;;;8.55;6.72;;;;;;;14.26;100.00;100508.94;674427;29;4557;-54
2023/06/18 00:49:08;;;;;;;9.32;6.43;;;;;;;14.28;100.00;100511.53;673116;29;1112;-53
2023/06/18 00:49:28;;;;;;;9.98;7.00;;;;;;;14.30;100.00;100512.34;674722;29;794;-51
2023/06/18 00:49:50;;;;;;;9.35;7.13;;;;;;;14.32;100.00;100513.19;673208;29;1380;-53
2023/06/18 00:50:16;;;;;;;9.83;6.80;;;;;;;14.27;100.00;100505.44;674943;29;1844;-55
2023/06/18 00:50:37;;;;;;;8.88;6.85;;;;;;;14.26;100.00;100508.94;675805;29;1344;-53
2023/06/18 00:50:59;;;;;;;8.40;6.68;;;;;;;14.30;100.00;100514.97;674270;29;1009;-52
2023/06/18 00:51:21;;;;;;;9.18;6.70;;;;;;;14.29;100.00;100508.88;674456;29;822;-54
2023/06/18 00:51:44;;;;;;;8.95;6.82;;;;;;;14.30;100.00;100509.72;674065;29;4499;-52
2023/06/18 00:52:05;;;;;;;8.07;6.78;;;;;;;14.30;100.00;100507.09;671127;29;1258;-54
2023/06/18 00:52:27;;;;;;;8.35;7.10;;;;;;;14.26;100.00;100506.31;675651;29;873;-53
2023/06/18 00:52:49;;;;;;;8.93;6.90;;;;;;;14.25;100.00;100515.09;677102;29;1057;-52
2023/06/18 00:53:13;;;;;;;8.80;6.75;;;;;;;14.27;100.00;100509.81;676998;29;951;-51
2023/06/18 00:53:33;;;;;;;8.80;6.70;;;;;;;14.25;100.00;100515.09;675754;29;1028;-53
2023/06/18 00:53:56;;;;;;;10.10;6.88;;;;;;;14.24;100.00;100505.47;672774;29;932;-53
2023/06/18 00:54:17;;;;;;;9.25;6.75;;;;;;;14.26;100.00;100511.59;671276;29;1251;-54
2023/06/18 00:54:40;;;;;;;9.20;7.20;;;;;;;14.28;100.00;100506.28;670988;29;1488;-55
2023/06/18 00:55:01;;;;;;;9.63;7.25;;;;;;;14.28;100.00;100499.25;668607;29;4694;-54
2023/06/18 00:55:22;;;;;;;9.05;6.80;;;;;;;14.27;100.00;100505.44;671829;29;921;-53
2023/06/18 00:55:43;;;;;;;9.35;6.75;;;;;;;14.27;100.00;100505.44;673549;29;1426;-54
2023/06/18 00:56:03;;;;;;;9.40;6.47;;;;;;;14.27;100.00;100501.91;674839;29;984;-52
2023/06/18 00:56:25;;;;;;;9.63;6.85;;;;;;;14.30;100.00;100502.72;675495;29;961;-53
2023/06/18 00:56:51;;;;;;;9.05;7.00;;;;;;;14.30;100.00;100499.22;674569;29;1266;-55
2023/06/18 00:57:17;;;;;;;9.27;6.63;;;;;;;14.33;100.00;100507.06;674641;29;827;-53
2023/06/18 00:57:38;;;;;;;8.82;6.80;;;;;;;14.28;100.00;100503.66;674064;29;1062;-54
2023/06/18 00:57:59;;;;;;;8.65;6.45;;;;;;;14.29;100.00;100505.41;672668;29;4546;-53
2023/06/18 00:58:23;;;;;;;8.68;6.50;;;;;;;14.31;100.00;100504.44;673551;29;985;-53
2023/06/18 00:58:47;;;;;;;8.60;6.55;;;;;;;14.34;100.00;100500.03;677494;29;866;-55
2023/06/18 00:59:09;;;;;;;8.85;6.55;;;;;;;14.34;100.00;100505.28;676249;29;998;-53
2023/06/18 00:59:32;;;;;;;8.60;6.47;;;;;;;14.30;100.00;100505.34;677173;29;1027;-52
2023/06/18 00:59:53;;;;;;;9.27;6.75;;;;;;;14.31;100.00;100504.44;673474;29;2159;-54
2023/06/18 01:00:14;;;;;;;8.40;6.75;;;;;;;14.34;100.00;100505.28;673520;29;910;-53
2023/06/18 01:00:34;;;;;;;8.35;6.82;;;;;;;14.34;100.00;100510.53;674234;29;961;-52
2023/06/18 01:00:54;;;;;;;8.90;6.90;;;;;;;14.34;100.00;100500.88;673015;29;4935;-52
2023/06/18 01:01:15;;;;;;;9.30;6.43;;;;;;;14.35;100.00;100505.25;674545;29;1066;-53
2023/06/18 01:01:36;;;;;;;8.07;6.53;;;;;;;14.34;100.00;100505.28;673941;29;1298;-53
2023/06/18 01:01:57;;;;;;;8.68;6.85;;;;;;;14.35;100.00;100507.00;673273;29;1006;-54
2023/06/18 01:02:23;;;;;;;9.55;7.00;;;;;;;14.35;100.00;100507.00;671017;29;1280;-54
2023/06/18 01:02:49;;;;;;;9.73;6.60;;;;;;;14.36;100.00;100495.56;669075;29;1324;-52
2023/06/18 01:03:16;;;;;;;8.70;6.85;;;;;;;14.36;100.00;100503.47;669619;29;973;-56
2023/06/18 01:03:36;;;;;;;8.88;6.63;;;;;;;14.33;100.00;100498.28;671692;29;1029;-51
2023/06/18 01:03:59;;;;;;;8.55;6.70;;;;;;;14.36;100.00;100508.72;670391;29;4531;-53
2023/06/18 01:04:22;;;;;;;10.02;6.93;;;;;;;14.38;100.00;100506.94;675413;29;834;-54
2023/06/18 01:04:43;;;;;;;9.00;7.00;;;;;;;14.38;100.00;100501.69;678529;29;1250;-54
2023/06/18 01:05:05;;;;;;;10.20;6.90;;;;;;;14.36;100.00;100506.09;677571;29;1281;-53
2023/06/18 01:05:29;;;;;;;8.98;6.82;;;;;;;14.33;100.00;100508.78;677326;29;873;-55
2023/06/18 01:05:57;;;;;;;8.63;6.47;;;;;;;14.30;100.00;100497.47;675035;29;1033;-52
2023/06/18 01:06:19;;;;;;;9.65;7.03;;;;;;;14.36;100.00;100503.47;674026;29;1532;-54
2023/06/18 01:06:40;;;;;;;9.10;7.03;;;;;;;14.33;100.00;100498.28;674075;29;1224;-52
2023/06/18 01:07:01;;;;;;;8.25;7.03;;;;;;;14.30;100.00;100500.09;671112;29;4355;-55
2023/06/18 01:07:23;;;;;;;9.00;6.82;;;;;;;14.32;100.00;100507.94;672812;29;1380;-52
2023/06/18 01:07:48;;;;;;;8.35;7.22;;;;;;;14.34;100.00;100503.50;674623;29;1066;-51
2023/06/18 01:08:12;;;;;;;8.70;6.75;;;;;;;14.34;100.00;100500.88;672080;29;1167;-54
2023/06/18 01:08:33;;;;;;;9.00;6.82;;;;;;;14.35;100.00;100504.38;672497;29;898;-51
2023/06/18 01:08:55;;;;;;;9.13;6.72;;;;;;;14.29;100.00;100503.63;673118;29;929;-53
2023/06/18 01:09:19;;;;;;;9.18;6.65;;;;;;;14.26;100.00;100501.06;675722;29;841;-54
2023/06/18 01:09:41;;;;;;;8.38;6.47;;;;;;;14.27;100.00;100499.28;676373;29;979;-53
2023/06/18 01:10:03;;;;;;;8.52;6.60;;;;;;;14.26;100.00;100502.81;675849;29;6478;-53
2023/06/18 01:10:29;;;;;;;8.43;6.90;;;;;;;14.23;100.00;100503.78;678719;29;1003;-54
2023/06/18 01:11:06;;;;;;;9.15;7.05;;;;;;;14.22;100.00;100501.16;677045;29;996;-52
2023/06/18 01:11:29;;;;;;;8.77;6.63;;;;;;;14.20;100.00;100501.19;675863;29;1025;-52
2023/06/18 01:11:51;;;;;;;9.23;7.05;;;;;;;14.17;100.00;100505.66;675613;29;968;-51
2023/06/18 01:12:13;;;;;;;8.45;6.90;;;;;;;14.16;100.00;100502.16;672622;29;831;-52
2023/06/18 01:12:34;;;;;;;9.25;7.05;;;;;;;14.14;100.00;100501.34;671809;29;3378;-55
2023/06/18 01:12:58;;;;;;;9.02;7.00;;;;;;;14.16;100.00;100496.03;670031;29;4419;-49
2023/06/18 01:13:19;;;;;;;10.68;7.25;;;;;;;14.15;100.00;100497.81;670935;29;1538;-53
2023/06/18 01:13:41;;;;;;;9.85;7.20;;;;;;;14.15;100.00;100500.44;671427;29;885;-54
2023/06/18 01:14:03;;;;;;;8.95;6.85;;;;;;;14.17;100.00;100498.63;670657;29;1549;-55
2023/06/18 01:14:28;;;;;;;10.20;7.00;;;;;;;14.16;100.00;100502.16;669782;29;1381;-54
2023/06/18 01:14:52;;;;;;;8.90;7.15;;;;;;;14.16;100.00;100506.56;672830;29;1033;-52
2023/06/18 01:15:13;;;;;;;8.45;7.07;;;;;;;14.16;100.00;100499.53;675772;29;841;-54
2023/06/18 01:15:34;;;;;;;8.32;6.50;;;;;;;14.16;100.00;100494.25;672112;29;1639;-53
2023/06/18 01:15:54;;;;;;;8.27;6.50;;;;;;;14.16;100.00;100502.16;670308;29;4270;-55
2023/06/18 01:16:16;;;;;;;8.77;6.40;;;;;;;14.17;100.00;100501.25;672911;29;929;-52
2023/06/18 01:16:46;;;;;;;8.75;6.65;;;;;;;14.17;100.00;100503.03;674308;29;1122;-55
2023/06/18 01:17:07;;;;;;;8.50;7.07;;;;;;;14.16;100.00;100498.66;670363;29;1726;-53
2023/06/18 01:17:33;;;;;;;9.00;7.30;;;;;;;14.12;100.00;100496.13;674792;29;937;-54
2023/06/18 01:17:57;;;;;;;7.80;6.50;;;;;;;14.16;100.00;100498.66;675389;29;1915;-54
2023/06/18 01:18:19;;;;;;;8.63;6.63;;;;;;;14.17;100.00;100498.63;676241;29;1069;-50
2023/06/18 01:18:45;;;;;;;9.57;6.88;;;;;;;14.16;100.00;100498.66;677073;29;834;-53
2023/06/18 01:19:10;;;;;;;9.02;6.53;;;;;;;14.18;100.00;100499.47;671908;29;6414;-53
2023/06/18 01:19:49;;;;;;;8.23;6.95;;;;;;;14.19;100.00;100501.22;674134;29;921;-52
2023/06/18 01:20:10;;;;;;;8.20;6.47;;;;;;;14.19;100.00;100490.72;673799;29;866;-54
2023/06/18 01:20:31;;;;;;;7.85;6.57;;;;;;;14.18;100.00;100500.38;674183;29;925;-52
2023/06/18 01:20:55;;;;;;;7.93;6.78;;;;;;;14.18;100.00;100500.38;670862;29;1718;-54
2023/06/18 01:21:20;;;;;;;7.75;6.43;;;;;;;14.17;100.00;100496.00;671882;29;933;-53
2023/06/18 01:21:44;;;;;;;8.07;6.63;;;;;;;14.18;100.00;100496.84;673525;29;4620;-53
2023/06/18 01:22:14;;;;;;;8.18;6.45;;;;;;;14.16;100.00;100502.16;675086;29;1546;-54
2023/06/18 01:22:44;;;;;;;8.93;7.10;;;;;;;14.16;100.00;100494.25;675539;29;854;-54
2023/06/18 01:23:15;;;;;;;9.30;6.60;;;;;;;14.14;100.00;100496.94;675374;29;1660;-54
2023/06/18 01:23:57;;;;;;;8.50;6.80;;;;;;;14.11;100.00;100491.75;677212;29;735;-52
2023/06/18 01:24:23;;;;;;;8.40;6.80;;;;;;;14.08;100.00;100498.81;674630;29;1575;-55
2023/06/18 01:24:51;;;;;;;8.73;6.60;;;;;;;14.06;100.00;100495.38;674107;29;4587;-54
2023/06/18 01:25:13;;;;;;;9.65;7.18;;;;;;;14.04;100.00;100497.16;676757;29;777;-51
2023/06/18 01:25:37;;;;;;;9.65;7.38;;;;;;;14.05;100.00;100498.91;676173;29;965;-54
2023/06/18 01:25:59;;;;;;;9.30;7.25;;;;;;;14.02;100.00;100494.56;671662;29;2086;-54
2023/06/18 01:26:22;;;;;;;8.70;6.88;;;;;;;14.02;100.00;100498.97;675200;29;1004;-52
2023/06/18 01:26:42;;;;;;;8.82;6.65;;;;;;;14.02;100.00;100494.56;674133;29;974;-54
2023/06/18 01:27:03;;;;;;;9.80;6.90;;;;;;;14.03;100.00;100498.94;672592;29;1603;-53
2023/06/18 01:27:27;;;;;;;9.30;7.18;;;;;;;14.02;100.00;100501.59;672734;29;890;-54
2023/06/18 01:27:50;;;;;;;8.32;6.75;;;;;;;14.03;100.00;100501.56;673800;29;4733;-52
2023/06/18 01:28:11;;;;;;;8.60;6.55;;;;;;;14.08;100.00;100499.72;676194;29;1435;-54
2023/06/18 01:28:35;;;;;;;7.90;6.80;;;;;;;14.04;100.00;100497.16;676569;29;1117;-54
2023/06/18 01:29:00;;;;;;;8.25;6.90;;;;;;;14.01;100.00;100494.59;673720;29;1584;-50
2023/06/18 01:29:21;;;;;;;10.35;6.82;;;;;;;13.99;100.00;100496.41;670426;29;929;-54
2023/06/18 01:29:41;;;;;;;8.73;6.82;;;;;;;13.93;100.00;100495.66;668163;29;1147;-53
2023/06/18 01:30:05;;;;;;;8.75;6.80;;;;;;;13.87;100.00;100490.50;667175;29;1526;-53
2023/06/18 01:30:26;;;;;;;8.70;6.50;;;;;;;13.87;100.00;100498.38;668200;29;3605;-53
2023/06/18 01:30:47;;;;;;;9.15;6.75;;;;;;;13.84;100.00;100490.56;667349;29;4374;-54
2023/06/18 01:31:08;;;;;;;7.90;6.63;;;;;;;13.80;100.00;100496.78;665665;29;1558;-54
2023/06/18 01:31:34;;;;;;;8.33;6.40;;;;;;;13.81;100.00;100495.91;669402;29;855;-52
2023/06/18 01:31:56;;;;;;;8.85;6.70;;;;;;;13.82;100.00;100492.38;669164;29;1580;-53
2023/06/18 01:32:17;;;;;;;9.07;7.18;;;;;;;13.81;100.00;100501.16;670918;29;910;-54
2023/06/18 01:32:38;;;;;;;8.95;7.13;;;;;;;13.83;100.00;100496.75;671912;29;823;-55
2023/06/18 01:32:58;;;;;;;8.48;6.90;;;;;;;13.84;100.00;100495.81;673307;29;1501;-55
2023/06/18 01:33:21;;;;;;;8.20;6.80;;;;;;;13.84;100.00;100493.19;674177;29;1289;-55
2023/06/18 01:33:41;;;;;;;9.95;7.05;;;;;;;13.86;100.00;100498.41;673524;29;4461;-50
2023/06/18 01:34:03;;;;;;;9.52;6.82;;;;;;;13.86;100.00;100494.06;671439;29;1592;-55
2023/06/18 01:34:24;;;;;;;8.85;6.40;;;;;;;13.84;100.00;100494.97;672313;29;969;-53
2023/06/18 01:34:45;;;;;;;8.77;6.60;;;;;;;13.86;100.00;100499.31;672371;29;948;-55
2023/06/18 01:35:08;;;;;;;10.87;7.07;;;;;;;13.85;100.00;100492.31;668600;29;1658;-54
2023/06/18 01:35:28;;;;;;;9.27;6.82;;;;;;;13.81;100.00;100495.91;671950;29;834;-54
2023/06/18 01:35:48;;;;;;;8.00;6.70;;;;;;;13.80;100.00;100491.53;672400;29;1327;-54
2023/06/18 01:36:12;;;;;;;8.77;6.70;;;;;;;13.81;100.00;100487.16;673202;29;1188;-55
2023/06/18 01:36:58;;;;;;;8.82;6.82;;;;;;;13.77;100.00;100489.84;673391;29;898;-53
2023/06/18 01:38:09;;;;;;;8.77;6.78;;;;;;;13.72;100.00;100488.19;673563;29;5166;-54
2023/06/18 01:38:36;;;;;;;8.38;7.38;;;;;;;13.70;100.00;100488.22;672703;29;1093;-53
2023/06/18 01:39:07;;;;;;;8.57;6.97;;;;;;;13.71;100.00;100492.59;672937;29;6290;-53
2023/06/18 01:39:46;;;;;;;7.95;6.60;;;;;;;13.71;100.00;100486.50;675956;29;1347;-54
2023/06/18 01:40:32;;;;;;;9.10;7.00;;;;;;;13.72;100.00;100489.09;672280;29;6148;-53
2023/06/18 01:40:55;;;;;;;8.95;6.85;;;;;;;13.77;100.00;100486.34;673306;29;1503;-51
2023/06/18 01:41:24;;;;;;;8.55;6.57;;;;;;;13.76;100.00;100490.75;672997;29;1085;-55
2023/06/18 01:41:46;;;;;;;8.05;6.57;;;;;;;13.75;100.00;100480.28;670784;29;1186;-54
2023/06/18 01:42:15;;;;;;;8.55;6.60;;;;;;;13.77;100.00;100483.72;672553;29;1461;-53
2023/06/18 01:42:39;;;;;;;9.10;7.00;;;;;;;13.71;100.00;100481.25;673863;29;824;-53
2023/06/18 01:43:11;;;;;;;8.90;6.75;;;;;;;13.69;100.00;100483.00;669976;29;4718;-53
2023/06/18 01:43:36;;;;;;;9.43;6.68;;;;;;;13.69;100.00;100485.66;670980;29;1444;-54
2023/06/18 01:44:03;;;;;;;8.18;6.40;;;;;;;13.67;100.00;100480.41;671338;29;1465;-54
2023/06/18 01:44:26;;;;;;;9.57;6.90;;;;;;;13.68;100.00;100487.41;671754;29;984;-54
2023/06/18 01:44:55;;;;;;;8.50;6.50;;;;;;;13.68;100.00;100490.03;668646;29;1159;-54
2023/06/18 01:45:23;;;;;;;9.02;6.97;;;;;;;13.68;100.00;100484.78;670099;29;918;-54
2023/06/18 01:46:08;;;;;;;8.45;6.68;;;;;;;13.69;100.00;100489.13;667702;29;4421;-50
2023/06/18 01:46:29;;;;;;;9.35;6.80;;;;;;;13.70;100.00;100488.22;670190;29;821;-52
2023/06/18 01:46:54;;;;;;;9.13;6.90;;;;;;;13.70;100.00;100493.50;669565;29;911;-53
2023/06/18 01:47:16;;;;;;;9.30;6.78;;;;;;;13.70;100.00;100488.22;676517;29;2071;-54